Time;durP1;ratioP1;P1;durP2;ratioP2;P2;SDS_P1;SDS_P2;PMS_P1;PMS_P2;Temp;Humidity;BMP_temperature;BMP_pressure;BME280_temperature;BME280_humidity;BME280_pressure;Samples;Min_cycle;Max_cycle;Signal;HPM_P1;HPM_P2
2021/01/31 00:00:19;;;;;;;17.25;13.02;;;0.30;99.90;;;;;;5097632;28;20209;-47
2021/01/31 00:02:46;;;;;;;18.80;13.30;;;0.30;99.90;;;;;;5096311;28;20225;-46
2021/01/31 00:05:13;;;;;;;24.88;14.20;;;0.30;99.90;;;;;;5096120;28;20581;-48
2021/01/31 00:07:42;;;;;;;20.30;16.02;;;0.30;99.90;;;;;;5094109;28;20192;-46
2021/01/31 00:10:11;;;;;;;19.60;13.40;;;-0.40;99.90;;;;;;5093688;28;20196;-48
2021/01/31 00:12:37;;;;;;;19.58;13.32;;;0.40;99.90;;;;;;5093140;28;20219;-47
2021/01/31 00:15:06;;;;;;;21.55;14.98;;;-0.40;99.90;;;;;;5093822;28;20206;-47
2021/01/31 00:17:33;;;;;;;23.90;14.10;;;0.30;99.90;;;;;;5093488;28;20536;-47
2021/01/31 00:19:59;;;;;;;25.42;15.60;;;0.30;99.90;;;;;;5093675;28;20214;-46
2021/01/31 00:22:26;;;;;;;24.50;16.15;;;0.20;99.90;;;;;;5092737;28;20585;-47
2021/01/31 00:24:54;;;;;;;21.88;14.13;;;0.50;99.90;;;;;;5093666;28;20211;-48
2021/01/31 00:27:22;;;;;;;21.00;14.30;;;0.20;99.90;;;;;;5093383;28;20203;-47
2021/01/31 00:29:49;;;;;;;24.63;15.60;;;0.40;99.90;;;;;;5093280;28;20260;-47
2021/01/31 00:32:20;;;;;;;25.50;16.20;;;0.20;99.90;;;;;;5092728;28;20590;-48
2021/01/31 00:34:46;;;;;;;21.77;13.77;;;-0.20;99.90;;;;;;5091938;28;20208;-47
2021/01/31 00:37:15;;;;;;;18.45;13.38;;;0.40;99.90;;;;;;5092134;28;20198;-47
2021/01/31 00:39:41;;;;;;;23.10;12.60;;;0.10;99.90;;;;;;5093078;28;20192;-47
2021/01/31 00:42:09;;;;;;;23.10;13.02;;;0.20;99.90;;;;;;5093033;28;20218;-48
2021/01/31 00:44:35;;;;;;;19.00;12.30;;;0.40;99.90;;;;;;5092947;28;20274;-48
2021/01/31 00:47:05;;;;;;;19.20;12.52;;;0.00;99.90;;;;;;5093783;28;20199;-47
2021/01/31 00:49:31;;;;;;;21.98;12.15;;;0.10;99.90;;;;;;5093430;28;20202;-45
2021/01/31 00:51:57;;;;;;;20.10;10.85;;;-0.20;99.90;;;;;;5094893;28;20600;-48
2021/01/31 00:54:24;;;;;;;15.82;12.50;;;-0.50;99.90;;;;;;5096253;28;20671;-47
2021/01/31 00:56:50;;;;;;;20.90;12.05;;;0.10;99.90;;;;;;5094585;28;20202;-48
2021/01/31 00:59:17;;;;;;;18.60;12.20;;;0.10;99.90;;;;;;5092172;28;20228;-47
2021/01/31 01:01:44;;;;;;;18.73;10.80;;;-0.10;99.90;;;;;;5091794;28;20246;-48
2021/01/31 01:04:10;;;;;;;16.75;10.85;;;0.20;99.90;;;;;;5091538;28;20198;-47
2021/01/31 01:06:54;;;;;;;13.13;9.40;;;0.10;99.90;;;;;;5091288;28;20203;-47
2021/01/31 01:09:20;;;;;;;24.95;15.60;;;0.30;99.90;;;;;;5092791;28;20249;-47
2021/01/31 01:11:47;;;;;;;21.50;11.88;;;0.30;99.90;;;;;;5091801;28;20218;-47
2021/01/31 01:14:13;;;;;;;18.55;11.40;;;0.40;99.90;;;;;;5092871;28;20705;-47
2021/01/31 01:16:40;;;;;;;15.98;10.30;;;-0.20;99.90;;;;;;5093018;28;20220;-49
2021/01/31 01:19:07;;;;;;;12.63;8.98;;;0.00;99.90;;;;;;5092585;28;20201;-49
2021/01/31 01:21:33;;;;;;;16.77;10.48;;;0.00;99.90;;;;;;5092623;28;20230;-47
2021/01/31 01:24:00;;;;;;;21.95;10.13;;;-0.40;99.90;;;;;;5092242;28;20260;-48
2021/01/31 01:26:28;;;;;;;12.90;9.82;;;0.30;99.90;;;;;;5092477;28;20191;-47
2021/01/31 01:28:54;;;;;;;16.63;10.95;;;0.10;99.90;;;;;;5092636;28;20192;-48
2021/01/31 01:31:20;;;;;;;14.95;10.93;;;0.00;99.90;;;;;;5092213;28;20732;-47
2021/01/31 01:33:48;;;;;;;13.18;10.07;;;0.20;99.90;;;;;;5092136;28;20257;-47
2021/01/31 01:36:15;;;;;;;14.23;9.80;;;0.10;99.90;;;;;;5092252;28;20690;-47
2021/01/31 01:38:41;;;;;;;13.43;9.35;;;0.30;99.90;;;;;;5092516;28;20203;-48
2021/01/31 01:41:08;;;;;;;14.00;10.25;;;-0.10;99.90;;;;;;5092222;28;20194;-48
2021/01/31 01:43:34;;;;;;;15.38;11.27;;;0.10;99.90;;;;;;5092174;28;20203;-48
2021/01/31 01:46:37;;;;;;;13.75;9.05;;;0.00;99.90;;;;;;5092623;28;20663;-47
2021/01/31 01:49:18;;;;;;;17.73;10.40;;;0.00;99.90;;;;;;5071709;28;20207;-47
2021/01/31 01:51:50;;;;;;;14.20;10.30;;;0.10;99.90;;;;;;5090624;28;20515;-47
2021/01/31 01:54:21;;;;;;;17.15;12.70;;;0.30;99.90;;;;;;5091698;28;20779;-48
2021/01/31 01:56:54;;;;;;;16.90;11.80;;;-0.40;99.90;;;;;;5092495;28;20205;-47
2021/01/31 01:59:21;;;;;;;17.48;11.98;;;0.10;99.90;;;;;;5091993;28;20257;-47
2021/01/31 02:01:59;;;;;;;13.20;10.20;;;-0.10;99.90;;;;;;5092434;28;20227;-46
2021/01/31 02:04:29;;;;;;;16.70;11.27;;;0.20;99.90;;;;;;5092121;28;20192;-46
2021/01/31 02:06:55;;;;;;;15.20;12.30;;;-0.10;99.90;;;;;;5092121;28;20194;-47
2021/01/31 02:09:22;;;;;;;46.70;33.85;;;-0.20;99.90;;;;;;5092598;28;20265;-45
2021/01/31 02:11:51;;;;;;;17.58;12.73;;;-0.10;99.90;;;;;;5092170;28;20206;-46
2021/01/31 02:14:18;;;;;;;14.95;10.90;;;-0.10;99.90;;;;;;5091571;28;20670;-47
2021/01/31 02:16:54;;;;;;;17.60;11.73;;;-0.10;99.90;;;;;;5092260;28;20187;-48
2021/01/31 02:19:57;;;;;;;16.98;11.93;;;-0.20;99.90;;;;;;5091982;28;20712;-47
2021/01/31 02:23:13;;;;;;;17.48;11.38;;;-0.10;99.90;;;;;;5091408;28;20234;-48
2021/01/31 02:25:54;;;;;;;14.98;11.30;;;-0.20;99.90;;;;;;5091846;28;20195;-49
2021/01/31 02:28:37;;;;;;;13.55;10.73;;;-0.20;99.90;;;;;;5091867;28;20206;-47
2021/01/31 02:31:26;;;;;;;16.10;12.25;;;0.00;99.90;;;;;;5091598;28;20692;-47
2021/01/31 02:33:58;;;;;;;17.83;12.60;;;-0.20;99.90;;;;;;5091602;28;20199;-47
2021/01/31 02:36:32;;;;;;;16.38;12.55;;;-0.80;99.90;;;;;;5092182;28;20268;-47
2021/01/31 02:39:09;;;;;;;18.48;12.43;;;-0.30;99.90;;;;;;5091999;28;20200;-46
2021/01/31 02:41:39;;;;;;;18.45;12.43;;;-0.40;99.90;;;;;;5091728;28;20224;-46
2021/01/31 02:44:10;;;;;;;16.80;12.40;;;-0.20;99.90;;;;;;5091504;28;20201;-47
2021/01/31 02:46:41;;;;;;;22.27;14.30;;;-0.20;99.90;;;;;;5091906;28;20286;-47
2021/01/31 02:49:13;;;;;;;15.38;11.90;;;-0.30;99.90;;;;;;5092121;28;20194;-48
2021/01/31 02:51:46;;;;;;;20.77;12.43;;;-0.30;99.90;;;;;;5091705;28;20730;-46
2021/01/31 02:54:18;;;;;;;20.38;12.05;;;-0.40;99.90;;;;;;5091357;28;20274;-47
2021/01/31 02:56:51;;;;;;;18.52;13.02;;;-0.50;99.90;;;;;;5091627;28;20198;-47
2021/01/31 02:59:22;;;;;;;20.02;13.27;;;-0.40;99.90;;;;;;5091525;28;20570;-48
2021/01/31 03:01:52;;;;;;;17.05;11.85;;;-0.40;99.90;;;;;;5093975;28;20222;-47
2021/01/31 03:04:28;;;;;;;17.98;13.63;;;-0.40;99.90;;;;;;5094781;28;20208;-47
2021/01/31 03:06:58;;;;;;;17.65;13.45;;;-0.50;99.90;;;;;;5095444;28;20229;-46
2021/01/31 03:09:31;;;;;;;17.75;13.40;;;-0.50;99.90;;;;;;5094979;28;20678;-46
2021/01/31 03:12:02;;;;;;;18.92;11.90;;;-0.40;99.90;;;;;;5094746;28;20252;-44
2021/01/31 03:14:32;;;;;;;18.30;12.82;;;-0.30;99.90;;;;;;5094574;28;20644;-45
2021/01/31 03:17:03;;;;;;;19.58;13.48;;;-0.50;99.90;;;;;;5094799;28;20201;-46
2021/01/31 03:19:35;;;;;;;16.33;12.07;;;-0.40;99.90;;;;;;5094908;28;20187;-49
2021/01/31 03:22:07;;;;;;;21.77;14.07;;;-0.40;99.90;;;;;;5094991;28;20227;-46
2021/01/31 03:24:36;;;;;;;19.27;12.88;;;-0.40;99.90;;;;;;5094811;28;20194;-45
2021/01/31 03:27:06;;;;;;;22.15;14.93;;;-0.40;99.90;;;;;;5094818;28;20194;-46
2021/01/31 03:29:33;;;;;;;21.08;13.00;;;-0.50;99.90;;;;;;5094510;28;20213;-46
2021/01/31 03:32:05;;;;;;;19.33;13.00;;;-0.50;99.90;;;;;;5093703;28;20217;-46
2021/01/31 03:34:41;;;;;;;21.95;13.63;;;-0.40;99.90;;;;;;5093457;28;20198;-49
2021/01/31 03:37:10;;;;;;;22.13;13.23;;;-0.40;99.90;;;;;;5094519;28;20561;-47
2021/01/31 03:39:40;;;;;;;20.60;15.00;;;-0.60;99.90;;;;;;5094682;28;20678;-46
2021/01/31 03:42:06;;;;;;;20.08;13.55;;;-0.60;99.90;;;;;;5095069;28;20632;-47
2021/01/31 03:44:36;;;;;;;24.38;14.95;;;-0.70;99.90;;;;;;5094803;28;20202;-47
2021/01/31 03:47:08;;;;;;;21.45;14.80;;;-0.60;99.90;;;;;;5094622;28;20191;-47
2021/01/31 03:49:41;;;;;;;21.65;15.27;;;-0.30;99.90;;;;;;5094255;28;20207;-46
2021/01/31 03:52:08;;;;;;;20.20;14.95;;;-0.60;99.90;;;;;;5094476;28;20625;-47
2021/01/31 03:54:34;;;;;;;22.05;14.15;;;-0.50;99.90;;;;;;5093966;28;20663;-47
2021/01/31 03:57:05;;;;;;;20.20;14.60;;;-0.40;99.90;;;;;;5094255;28;20226;-46
2021/01/31 03:59:35;;;;;;;26.30;16.38;;;-0.70;99.90;;;;;;5094033;28;20199;-47
2021/01/31 04:02:05;;;;;;;21.63;15.73;;;-0.50;99.90;;;;;;5093689;28;20556;-46
2021/01/31 04:04:37;;;;;;;25.58;15.90;;;-0.60;99.90;;;;;;5093781;28;20191;-47
2021/01/31 04:07:06;;;;;;;21.73;14.88;;;-1.30;99.90;;;;;;5094225;28;20195;-46
2021/01/31 04:09:36;;;;;;;20.20;14.68;;;-0.50;99.90;;;;;;5094173;28;20198;-46
2021/01/31 04:12:05;;;;;;;23.85;15.23;;;-0.60;99.90;;;;;;5094103;28;20208;-46
2021/01/31 04:14:37;;;;;;;18.77;15.43;;;-0.70;99.90;;;;;;5093777;28;20198;-47
2021/01/31 04:17:04;;;;;;;24.90;16.85;;;-0.70;99.90;;;;;;5095516;28;20202;-46
2021/01/31 04:19:30;;;;;;;19.88;15.32;;;-0.60;99.90;;;;;;5094772;28;20261;-46
2021/01/31 04:21:58;;;;;;;22.10;16.58;;;-0.70;99.90;;;;;;5094011;28;20228;-46
2021/01/31 04:24:24;;;;;;;20.30;15.88;;;-1.10;99.90;;;;;;5093646;28;20202;-47
2021/01/31 04:26:50;;;;;;;24.42;16.10;;;-0.60;99.90;;;;;;5094075;28;20221;-46
2021/01/31 04:29:17;;;;;;;21.90;17.13;;;-0.80;99.90;;;;;;5093707;28;20198;-48
2021/01/31 04:31:43;;;;;;;26.80;15.50;;;-0.80;99.90;;;;;;5107447;22;20223;-44
2021/01/31 04:34:12;;;;;;;21.23;16.00;;;-0.80;99.90;;;;;;5093237;28;20194;-45
2021/01/31 04:36:38;;;;;;;21.73;15.80;;;-1.00;99.90;;;;;;5093575;28;20202;-44
2021/01/31 04:39:06;;;;;;;23.92;16.08;;;-0.90;99.90;;;;;;5093934;28;20198;-44
2021/01/31 04:41:36;;;;;;;21.17;14.60;;;-0.70;99.90;;;;;;5093729;28;20218;-45
2021/01/31 04:44:04;;;;;;;23.33;14.98;;;-0.80;99.90;;;;;;5094359;28;20191;-45
2021/01/31 04:46:40;;;;;;;24.13;15.40;;;-0.70;99.90;;;;;;5096583;28;20224;-44
2021/01/31 04:49:18;;;;;;;21.55;16.60;;;-0.50;99.90;;;;;;5095723;28;20196;-44
2021/01/31 04:52:02;;;;;;;23.35;14.15;;;-0.70;99.90;;;;;;5095741;28;20214;-44
2021/01/31 04:54:44;;;;;;;18.15;15.02;;;-0.50;99.90;;;;;;5094123;28;20199;-43
2021/01/31 04:57:13;;;;;;;20.60;15.50;;;-0.50;99.90;;;;;;5093032;28;20202;-44
2021/01/31 04:59:44;;;;;;;17.23;13.45;;;-0.80;99.90;;;;;;5093239;28;20198;-44
2021/01/31 05:02:15;;;;;;;18.35;14.20;;;-0.90;99.90;;;;;;5091292;28;20230;-45
2021/01/31 05:04:50;;;;;;;19.77;14.10;;;-0.60;99.90;;;;;;5092606;28;20187;-44
2021/01/31 05:07:17;;;;;;;22.50;16.92;;;-0.50;99.90;;;;;;5092550;28;20190;-44
2021/01/31 05:09:44;;;;;;;21.92;14.43;;;-0.60;99.90;;;;;;5092618;28;20206;-44
2021/01/31 05:12:18;;;;;;;19.85;14.32;;;-0.90;99.90;;;;;;5091075;28;20215;-44
2021/01/31 05:15:11;;;;;;;18.30;12.80;;;-0.60;99.90;;;;;;5092589;28;20719;-44
2021/01/31 05:17:39;;;;;;;17.42;13.10;;;-0.80;99.90;;;;;;5089529;28;20264;-44
2021/01/31 05:20:09;;;;;;;21.65;13.82;;;-0.70;99.90;;;;;;5092363;28;20202;-44
2021/01/31 05:22:41;;;;;;;18.20;12.63;;;-1.00;99.90;;;;;;5091828;28;20226;-44
2021/01/31 05:25:13;;;;;;;18.10;12.52;;;-0.90;99.90;;;;;;5092080;28;20203;-44
2021/01/31 05:27:40;;;;;;;22.27;14.82;;;-0.80;99.90;;;;;;5090938;28;20556;-44
2021/01/31 05:30:07;;;;;;;24.48;14.52;;;-0.90;99.90;;;;;;5092172;28;20689;-44
2021/01/31 05:33:00;;;;;;;20.67;13.32;;;-1.00;99.90;;;;;;5091702;28;20263;-44
2021/01/31 05:35:29;;;;;;;17.35;13.32;;;-0.80;99.90;;;;;;5092087;28;20198;-44
2021/01/31 05:37:55;;;;;;;19.88;12.93;;;-0.80;99.90;;;;;;5090806;28;20202;-45
2021/01/31 05:40:31;;;;;;;14.13;11.40;;;-0.80;99.90;;;;;;5092760;28;20193;-44
2021/01/31 05:42:58;;;;;;;16.90;11.45;;;-1.50;99.90;;;;;;5090982;28;20222;-44
2021/01/31 05:45:32;;;;;;;15.35;11.45;;;-0.80;99.90;;;;;;5091674;28;20276;-44
2021/01/31 05:48:01;;;;;;;16.80;12.85;;;-0.90;99.90;;;;;;5092154;28;20203;-44
2021/01/31 05:50:33;;;;;;;17.27;11.82;;;-0.90;99.90;;;;;;5091841;28;20194;-44
2021/01/31 05:53:22;;;;;;;14.95;11.38;;;-0.80;99.90;;;;;;5091962;28;20211;-45
2021/01/31 05:55:50;;;;;;;18.25;12.15;;;-0.80;99.90;;;;;;5090635;28;20199;-44
2021/01/31 05:58:19;;;;;;;14.38;11.90;;;-1.10;99.90;;;;;;5091962;28;20187;-45
2021/01/31 06:00:47;;;;;;;16.52;12.32;;;-0.80;99.90;;;;;;5091694;28;20190;-44
2021/01/31 06:03:20;;;;;;;17.77;11.68;;;-0.80;99.90;;;;;;5091415;28;20225;-44
2021/01/31 06:05:48;;;;;;;15.23;11.55;;;-0.90;99.90;;;;;;5094311;28;20564;-43
2021/01/31 06:08:26;;;;;;;17.48;11.55;;;-1.50;99.90;;;;;;5091732;28;20552;-43
2021/01/31 06:11:02;;;;;;;16.63;11.02;;;-0.90;99.90;;;;;;5091716;28;20202;-43
2021/01/31 06:13:29;;;;;;;17.48;10.93;;;-1.50;99.90;;;;;;5091806;28;20206;-44
2021/01/31 06:16:00;;;;;;;13.63;9.70;;;-1.00;99.90;;;;;;5091634;28;20278;-44
2021/01/31 06:18:29;;;;;;;13.98;9.98;;;-1.10;99.90;;;;;;5091767;28;20610;-44
2021/01/31 06:21:09;;;;;;;15.85;11.23;;;-1.80;99.90;;;;;;5091684;28;20190;-45
2021/01/31 06:23:40;;;;;;;14.93;10.70;;;-1.00;99.90;;;;;;5091177;28;20713;-44
2021/01/31 06:26:19;;;;;;;14.20;9.80;;;-1.10;99.90;;;;;;5091824;28;20679;-44
2021/01/31 06:28:47;;;;;;;18.00;11.20;;;-1.10;99.90;;;;;;5091827;28;20554;-44
2021/01/31 06:31:28;;;;;;;16.85;11.52;;;-1.10;99.90;;;;;;5091764;28;20209;-43
2021/01/31 06:33:54;;;;;;;14.65;10.77;;;-1.10;99.90;;;;;;5089970;28;20549;-43
2021/01/31 06:36:40;;;;;;;14.70;10.07;;;-1.30;99.90;;;;;;5093823;28;20268;-44
2021/01/31 06:39:14;;;;;;;16.60;10.45;;;-1.00;99.90;;;;;;5095379;28;20195;-44
2021/01/31 06:41:53;;;;;;;13.95;10.50;;;-1.00;99.90;;;;;;5095304;28;20887;-43
2021/01/31 06:44:33;;;;;;;16.90;11.05;;;-1.20;99.90;;;;;;5095248;28;20187;-43
2021/01/31 06:47:16;;;;;;;15.57;10.60;;;-1.30;99.90;;;;;;5095276;28;20190;-43
2021/01/31 06:49:55;;;;;;;17.13;11.75;;;-1.20;99.90;;;;;;5095287;28;20186;-44
2021/01/31 06:52:34;;;;;;;15.65;10.48;;;-1.30;99.90;;;;;;5094879;28;20256;-43
2021/01/31 06:55:17;;;;;;;14.68;10.43;;;-1.20;99.90;;;;;;5094845;28;20243;-43
2021/01/31 06:58:08;;;;;;;17.15;11.15;;;-1.30;99.90;;;;;;5095136;28;20190;-43
2021/01/31 07:01:01;;;;;;;16.20;9.90;;;-1.10;99.90;;;;;;5095138;28;20203;-45
2021/01/31 07:03:50;;;;;;;12.73;9.75;;;-1.10;99.90;;;;;;5093265;28;20226;-44
2021/01/31 07:06:42;;;;;;;17.05;10.95;;;-1.20;99.90;;;;;;5094856;28;20682;-44
2021/01/31 07:09:35;;;;;;;15.13;10.73;;;-1.10;99.90;;;;;;5094726;28;20199;-43
2021/01/31 07:12:09;;;;;;;15.35;9.68;;;-1.20;99.90;;;;;;5092269;28;20313;-44
2021/01/31 07:14:43;;;;;;;14.30;10.05;;;-1.40;99.90;;;;;;5094722;28;20642;-44
2021/01/31 07:17:21;;;;;;;16.30;10.68;;;-1.10;99.90;;;;;;5094776;28;20187;-43
2021/01/31 07:19:51;;;;;;;12.15;9.07;;;-1.50;99.90;;;;;;5093513;28;20614;-44
2021/01/31 07:22:23;;;;;;;17.27;10.55;;;-1.50;99.90;;;;;;5094557;28;20222;-44
2021/01/31 07:24:52;;;;;;;14.90;9.40;;;-1.50;99.90;;;;;;5094699;28;20229;-43
2021/01/31 07:27:25;;;;;;;14.40;9.55;;;-1.20;99.90;;;;;;5094383;28;20194;-44
2021/01/31 07:30:08;;;;;;;13.70;9.88;;;-1.30;99.90;;;;;;5094590;28;20218;-43
2021/01/31 07:32:50;;;;;;;13.32;9.43;;;-1.10;99.90;;;;;;5092629;28;20222;-43
2021/01/31 07:35:21;;;;;;;15.73;10.45;;;-1.00;99.90;;;;;;5093303;28;20249;-43
2021/01/31 07:37:50;;;;;;;14.98;10.25;;;-1.50;99.90;;;;;;5094579;28;20259;-44
2021/01/31 07:40:20;;;;;;;15.73;10.57;;;-1.10;99.90;;;;;;5094075;28;20198;-44
2021/01/31 07:42:51;;;;;;;16.10;9.85;;;-1.00;99.90;;;;;;5093646;28;20683;-43
2021/01/31 07:45:21;;;;;;;14.48;10.07;;;-1.10;99.90;;;;;;5094030;28;20251;-44
2021/01/31 07:47:48;;;;;;;14.88;10.52;;;-1.00;99.90;;;;;;5093525;28;20187;-43
2021/01/31 07:50:37;;;;;;;12.90;9.35;;;-1.10;99.90;;;;;;5092705;28;20268;-44
2021/01/31 07:53:06;;;;;;;14.27;9.35;;;-1.30;99.90;;;;;;5093609;28;20210;-44
2021/01/31 07:55:36;;;;;;;16.73;11.27;;;-1.10;99.90;;;;;;5094113;28;20214;-44
2021/01/31 07:58:40;;;;;;;16.08;10.90;;;-1.90;99.90;;;;;;5094227;28;20195;-44
2021/01/31 08:01:35;;;;;;;15.43;9.43;;;-1.00;99.90;;;;;;5093923;28;20294;-43
2021/01/31 08:04:26;;;;;;;17.05;10.32;;;-1.10;99.90;;;;;;5093401;28;20248;-44
2021/01/31 08:06:55;;;;;;;15.82;10.00;;;-1.10;99.90;;;;;;5093866;28;20677;-45
2021/01/31 08:10:03;;;;;;;17.08;12.23;;;-0.90;99.90;;;;;;5095769;28;20550;-45
2021/01/31 08:12:59;;;;;;;21.52;13.00;;;-1.30;99.90;;;;;;5078285;28;20614;-45
2021/01/31 08:15:42;;;;;;;18.20;12.35;;;-0.80;99.90;;;;;;5091961;28;20198;-44
2021/01/31 08:18:18;;;;;;;19.23;12.63;;;-0.80;99.90;;;;;;5093374;28;20198;-44
2021/01/31 08:20:47;;;;;;;22.58;12.85;;;-0.90;99.90;;;;;;5091987;28;20209;-44
2021/01/31 08:23:46;;;;;;;19.05;12.88;;;-1.20;99.90;;;;;;5093676;28;20612;-44
2021/01/31 08:26:40;;;;;;;19.02;11.07;;;-1.00;99.90;;;;;;5095026;28;20199;-45
2021/01/31 08:29:21;;;;;;;16.17;10.32;;;-0.80;99.90;;;;;;5094683;28;20191;-45
2021/01/31 08:32:11;;;;;;;17.83;11.30;;;-0.80;99.90;;;;;;5095515;28;20528;-45
2021/01/31 08:35:18;;;;;;;18.38;12.13;;;-0.70;99.90;;;;;;5099158;28;20206;-44
2021/01/31 08:37:45;;;;;;;14.93;10.05;;;-0.60;99.90;;;;;;5101032;28;20214;-43
2021/01/31 08:40:24;;;;;;;16.52;10.00;;;-0.80;99.90;;;;;;5099729;28;20197;-43
2021/01/31 08:42:54;;;;;;;14.38;10.27;;;-1.40;99.90;;;;;;5099035;28;20218;-45
2021/01/31 08:45:21;;;;;;;14.82;10.70;;;-0.50;99.90;;;;;;5094673;28;20202;-44
2021/01/31 08:47:47;;;;;;;19.17;11.50;;;-0.50;99.90;;;;;;5094517;28;20217;-44
2021/01/31 08:50:18;;;;;;;17.70;12.48;;;-0.60;99.90;;;;;;5095445;28;20194;-44
2021/01/31 08:52:47;;;;;;;16.50;11.05;;;-0.60;99.90;;;;;;5095614;28;20556;-45
2021/01/31 08:55:22;;;;;;;15.52;10.70;;;-0.40;99.90;;;;;;5093662;28;20678;-44
2021/01/31 08:57:49;;;;;;;18.48;10.98;;;-0.60;99.90;;;;;;5091919;28;20210;-44
2021/01/31 09:00:25;;;;;;;20.88;12.02;;;-0.30;99.90;;;;;;5093389;28;20584;-44
2021/01/31 09:02:51;;;;;;;17.23;11.45;;;-0.40;99.90;;;;;;5093446;28;20218;-45
2021/01/31 09:05:20;;;;;;;14.63;10.90;;;-0.40;99.90;;;;;;5092765;28;20198;-44
2021/01/31 09:07:51;;;;;;;13.55;11.02;;;-0.40;99.90;;;;;;5094944;28;20195;-42
2021/01/31 09:10:27;;;;;;;14.93;10.88;;;-0.30;99.90;;;;;;5095007;28;20663;-44
2021/01/31 09:13:07;;;;;;;16.55;11.75;;;-0.30;99.90;;;;;;5094638;28;20286;-44
2021/01/31 09:15:33;;;;;;;15.18;10.30;;;-0.10;99.90;;;;;;5095489;28;20572;-43
2021/01/31 09:18:06;;;;;;;17.77;11.68;;;-0.30;99.90;;;;;;5094813;28;20194;-43
2021/01/31 09:20:33;;;;;;;17.33;11.88;;;-0.30;99.90;;;;;;5094593;28;20190;-43
2021/01/31 09:23:06;;;;;;;15.30;11.75;;;-0.40;99.90;;;;;;5094188;28;20695;-44
2021/01/31 09:25:36;;;;;;;19.27;13.02;;;-0.20;99.90;;;;;;5094120;28;20260;-43
2021/01/31 09:28:07;;;;;;;15.20;11.27;;;-0.20;99.90;;;;;;5094633;28;20203;-43
2021/01/31 09:30:34;;;;;;;18.00;11.70;;;0.10;99.90;;;;;;5093331;28;20671;-43
2021/01/31 09:33:07;;;;;;;17.35;11.02;;;-0.10;99.90;;;;;;5091074;28;20233;-43
2021/01/31 09:35:37;;;;;;;17.92;11.10;;;0.00;99.90;;;;;;5093210;28;20207;-43
2021/01/31 09:38:17;;;;;;;16.65;11.57;;;0.30;99.90;;;;;;5094691;28;20198;-43
2021/01/31 09:40:46;;;;;;;20.35;11.32;;;0.10;99.90;;;;;;5095759;28;20191;-45
2021/01/31 09:43:18;;;;;;;15.73;11.50;;;0.20;99.90;;;;;;5094372;28;20214;-43
2021/01/31 09:45:47;;;;;;;15.63;10.63;;;-0.10;99.90;;;;;;5095393;28;20191;-44
2021/01/31 09:48:17;;;;;;;17.38;10.77;;;0.20;99.90;;;;;;5093395;28;20204;-43
2021/01/31 09:50:45;;;;;;;15.73;10.43;;;0.10;99.90;;;;;;5094597;28;20191;-45
2021/01/31 09:53:27;;;;;;;21.33;12.35;;;0.10;99.90;;;;;;5095845;28;20211;-45
2021/01/31 09:55:54;;;;;;;18.58;11.82;;;0.30;99.90;;;;;;5097402;28;20668;-44
2021/01/31 09:58:23;;;;;;;16.25;11.70;;;-0.50;99.90;;;;;;5094909;28;20218;-44
2021/01/31 10:00:50;;;;;;;19.30;11.10;;;0.20;99.90;;;;;;5095343;28;20207;-44
2021/01/31 10:03:28;;;;;;;16.00;12.15;;;0.30;99.90;;;;;;5097033;28;20222;-44
2021/01/31 10:06:10;;;;;;;15.15;10.25;;;0.20;99.90;;;;;;5098994;28;20203;-44
2021/01/31 10:08:51;;;;;;;16.80;10.68;;;0.20;99.90;;;;;;5098732;28;20217;-45
2021/01/31 10:11:29;;;;;;;14.82;9.63;;;0.40;99.90;;;;;;5100587;28;20555;-43
2021/01/31 10:13:56;;;;;;;14.18;9.20;;;0.30;99.90;;;;;;5099437;28;20186;-44
2021/01/31 10:16:24;;;;;;;12.68;9.85;;;0.30;99.90;;;;;;5099718;28;20642;-43
2021/01/31 10:18:51;;;;;;;13.52;9.48;;;0.40;99.90;;;;;;5099245;28;20284;-44
2021/01/31 10:21:32;;;;;;;12.65;8.60;;;0.60;99.90;;;;;;5099542;28;20195;-43
2021/01/31 10:24:06;;;;;;;12.35;9.13;;;0.80;99.90;;;;;;5099258;28;20686;-43
2021/01/31 10:26:35;;;;;;;13.23;9.35;;;0.30;99.90;;;;;;5100286;28;20200;-44
2021/01/31 10:29:05;;;;;;;11.77;9.52;;;0.70;99.90;;;;;;5099344;28;20198;-45
2021/01/31 10:31:33;;;;;;;11.27;9.07;;;0.60;99.90;;;;;;5095558;28;20279;-44
2021/01/31 10:34:01;;;;;;;12.38;9.50;;;0.80;99.90;;;;;;5109128;22;20314;-47
2021/01/31 10:36:34;;;;;;;10.88;9.20;;;0.70;99.90;;;;;;5095430;28;20665;-45
2021/01/31 10:39:04;;;;;;;11.85;8.52;;;0.80;99.90;;;;;;5110624;28;20631;-47
2021/01/31 10:41:30;;;;;;;13.90;9.10;;;0.90;99.90;;;;;;5094502;28;20196;-46
2021/01/31 10:44:03;;;;;;;13.18;8.88;;;0.90;99.90;;;;;;5092696;28;20228;-47
2021/01/31 10:46:31;;;;;;;14.65;9.48;;;0.90;99.90;;;;;;5094654;28;20187;-47
2021/01/31 10:48:57;;;;;;;17.73;11.73;;;0.90;99.90;;;;;;5094160;28;20662;-46
2021/01/31 10:51:25;;;;;;;16.70;11.32;;;0.80;99.90;;;;;;5094548;28;20198;-47
2021/01/31 10:53:51;;;;;;;12.10;8.55;;;1.00;99.90;;;;;;5094017;28;20297;-46
2021/01/31 10:56:24;;;;;;;12.18;8.35;;;1.10;99.90;;;;;;5094279;28;20190;-47
2021/01/31 10:58:51;;;;;;;9.65;7.85;;;1.10;99.90;;;;;;5093694;28;20248;-46
2021/01/31 11:01:17;;;;;;;9.73;8.18;;;1.10;99.90;;;;;;5094266;28;20203;-47
2021/01/31 11:03:44;;;;;;;9.45;7.78;;;1.20;99.90;;;;;;5093938;28;20230;-47
2021/01/31 11:06:10;;;;;;;10.75;7.68;;;1.00;99.90;;;;;;5093931;28;20276;-47
2021/01/31 11:08:37;;;;;;;11.52;8.52;;;1.30;99.90;;;;;;5093688;28;20183;-46
2021/01/31 11:11:04;;;;;;;12.80;8.45;;;1.10;99.90;;;;;;5093720;28;20229;-47
2021/01/31 11:13:31;;;;;;;10.40;7.90;;;1.10;99.90;;;;;;5093603;28;20238;-47
2021/01/31 11:15:58;;;;;;;10.18;7.28;;;0.70;99.90;;;;;;5093978;28;20190;-46
2021/01/31 11:18:25;;;;;;;11.82;7.75;;;1.30;99.90;;;;;;5093704;28;20507;-47
2021/01/31 11:20:52;;;;;;;10.15;7.43;;;1.30;99.90;;;;;;5092611;28;20289;-47
2021/01/31 11:23:19;;;;;;;13.35;7.63;;;1.30;99.90;;;;;;5092668;28;20287;-47
2021/01/31 11:25:45;;;;;;;11.30;8.73;;;1.60;99.90;;;;;;5093222;28;20194;-47
2021/01/31 11:28:12;;;;;;;10.13;8.07;;;1.20;99.90;;;;;;5093908;28;20192;-47
2021/01/31 11:30:40;;;;;;;14.20;9.52;;;1.40;99.90;;;;;;5094080;28;20196;-47
2021/01/31 11:33:06;;;;;;;13.30;8.52;;;1.30;99.90;;;;;;5092800;28;20287;-46
2021/01/31 11:35:33;;;;;;;8.90;7.20;;;1.20;99.90;;;;;;5093227;28;20213;-45
2021/01/31 11:37:59;;;;;;;11.15;8.20;;;1.50;99.90;;;;;;5093197;28;20195;-48
2021/01/31 11:40:27;;;;;;;9.02;6.72;;;1.50;99.90;;;;;;5093778;28;20244;-47
2021/01/31 11:42:53;;;;;;;13.32;7.65;;;1.40;99.90;;;;;;5093067;28;20235;-46
2021/01/31 11:45:22;;;;;;;10.25;7.63;;;1.60;99.90;;;;;;5093561;28;20205;-47
2021/01/31 11:47:49;;;;;;;8.40;7.00;;;1.40;99.90;;;;;;5092834;28;20648;-46
2021/01/31 11:50:17;;;;;;;8.30;6.68;;;1.40;99.90;;;;;;5093024;28;20198;-47
2021/01/31 11:52:43;;;;;;;10.30;7.35;;;1.60;99.90;;;;;;5091904;28;20240;-47
2021/01/31 11:55:10;;;;;;;11.70;9.10;;;1.40;99.90;;;;;;5092837;28;20677;-47
2021/01/31 11:57:37;;;;;;;16.15;9.98;;;1.50;99.90;;;;;;5092729;28;20581;-48
2021/01/31 12:00:04;;;;;;;10.40;7.75;;;1.00;99.90;;;;;;5091334;28;20626;-48
2021/01/31 12:02:38;;;;;;;12.00;7.85;;;1.50;99.90;;;;;;5093128;28;20240;-47
2021/01/31 12:05:10;;;;;;;9.52;7.78;;;1.50;99.90;;;;;;5092886;28;20191;-50
2021/01/31 12:07:36;;;;;;;12.07;7.35;;;1.50;99.90;;;;;;5092880;28;20195;-48
2021/01/31 12:10:04;;;;;;;10.07;7.45;;;1.60;99.90;;;;;;5092960;28;20242;-48
2021/01/31 12:12:30;;;;;;;11.07;8.70;;;1.70;99.90;;;;;;5091103;28;20663;-48
2021/01/31 12:14:57;;;;;;;11.57;8.55;;;1.60;99.90;;;;;;5095588;28;20248;-49
2021/01/31 12:17:23;;;;;;;11.70;8.45;;;1.60;99.90;;;;;;5096196;28;20197;-46
2021/01/31 12:19:50;;;;;;;14.73;9.90;;;1.60;99.90;;;;;;5094221;28;20233;-46
2021/01/31 12:22:17;;;;;;;10.75;8.05;;;1.60;99.90;;;;;;5092223;28;20226;-47
2021/01/31 12:24:45;;;;;;;13.52;9.25;;;1.40;99.90;;;;;;5093119;28;20190;-47
2021/01/31 12:27:12;;;;;;;13.60;8.63;;;1.50;99.90;;;;;;5092809;28;20679;-48
2021/01/31 12:29:38;;;;;;;9.30;6.72;;;1.60;99.90;;;;;;5092599;28;20213;-47
2021/01/31 12:32:05;;;;;;;12.57;8.77;;;1.70;99.90;;;;;;5092310;28;20254;-48
2021/01/31 12:34:32;;;;;;;8.07;6.18;;;1.70;99.90;;;;;;5091913;28;20616;-48
2021/01/31 12:36:58;;;;;;;11.43;8.90;;;1.90;99.90;;;;;;5091962;28;20218;-47
2021/01/31 12:39:26;;;;;;;11.85;7.88;;;1.10;99.90;;;;;;5091950;28;20266;-47
2021/01/31 12:41:52;;;;;;;10.45;8.13;;;1.80;99.90;;;;;;5092381;28;20190;-47
2021/01/31 12:44:18;;;;;;;11.15;8.00;;;2.00;99.90;;;;;;5091441;28;20214;-47
2021/01/31 12:46:45;;;;;;;12.20;8.65;;;1.80;99.90;;;;;;5091795;28;20557;-47
2021/01/31 12:49:11;;;;;;;13.93;8.45;;;1.70;99.90;;;;;;5092115;28;20195;-46
2021/01/31 12:51:38;;;;;;;11.23;8.50;;;1.80;99.90;;;;;;5092047;28;20199;-48
2021/01/31 12:54:04;;;;;;;9.50;7.47;;;1.80;99.90;;;;;;5091758;28;20263;-47
2021/01/31 12:56:31;;;;;;;11.68;7.43;;;1.80;99.90;;;;;;5093282;28;20202;-47